»·PEaware :: N9298L KUAO-KSLE

N9298L :: KUAO-KSLE

FLIGHT INFORMATION

Flight Status: Arrived
Operator: Privately registered:
United States
More flights under this callsign
Pilot: Brendan O. (14500)
Aircraft: PIPER PA-32 SARATOGA
(PA32)
More flights by this aircraft type
Origin: KUAO Aurora State
United States
Destination: KSLE McNary
United States
More flights between these airports :: More routes between these airports
Route: +UBG2 UBG MCCOY
File this flight plan on PilotEdge
Remarks:
Altitude:
(Current/Filed)
4,000ft
Speed:
(Current/Filed)
145kts
Departed: 04-Dec-17 08:46 AM
Arrived: 04-Dec-17 09:27 AM
Distance/Time
Traveled:
23nm/0:41
Distance/Time
To Go:
Arrived

Flight Plot

Page will automatically refresh every two minutes.

Flight plan parsing failed; only flown route is shown


Map Options




Map Legend


Flown Route
Filed Route
Departure Airport
Arrival Airport
Navaid (VOR, NDB)
Fix

Horizontal Profiles

Position Reports

Time Latitude Longitude Heading Altitude Ground
Speed
04-Dec-17 08:41 45.253779 -122.768868 187 199ft 0kts
04-Dec-17 08:42 45.253779 -122.768868 187 199ft 0kts
04-Dec-17 08:43 45.253779 -122.768868 187 199ft 0kts
04-Dec-17 08:44 45.253779 -122.768868 187 199ft 0kts
04-Dec-17 08:45 45.253779 -122.768868 187 199ft 0kts
04-Dec-17 08:46 45.253779 -122.768868 187 199ft 0kts
04-Dec-17 08:47 45.253779 -122.768868 187 199ft 0kts
04-Dec-17 08:48 45.253779 -122.768868 187 199ft 0kts
04-Dec-17 08:49 45.253779 -122.768868 187 199ft 0kts
04-Dec-17 08:50 45.253779 -122.768868 187 199ft 0kts
04-Dec-17 08:51 45.240083 -122.771533 188 401ft 98kts
04-Dec-17 08:52 45.214345 -122.784211 259 1499ft 111kts
04-Dec-17 08:53 45.235399 -122.819072 317 2410ft 123kts
04-Dec-17 08:54 45.256611 -122.845808 317 3187ft 123kts
04-Dec-17 08:55 45.286023 -122.885338 309 3977ft 136kts
04-Dec-17 08:56 45.291204 -122.932294 273 4025ft 153kts
04-Dec-17 08:57 45.294098 -123.000449 276 3969ft 142kts
04-Dec-17 08:58 45.295790 -123.054991 264 3976ft 139kts
04-Dec-17 08:59 45.271090 -123.078926 191 3782ft 144kts
04-Dec-17 09:00 45.230696 -123.091683 194 3018ft 149kts
04-Dec-17 09:01 45.191653 -123.105073 194 2521ft 132kts
04-Dec-17 09:02 45.158065 -123.118450 196 2488ft 125kts
04-Dec-17 09:03 45.118029 -123.133047 191 2527ft 128kts
04-Dec-17 09:04 45.088777 -123.141568 190 2492ft 130kts
04-Dec-17 09:05 45.055526 -123.121587 146 2116ft 124kts
04-Dec-17 09:06 45.027677 -123.095671 148 2182ft 118kts
04-Dec-17 09:07 44.999235 -123.071596 146 2155ft 124kts
04-Dec-17 09:08 44.965474 -123.046241 153 988ft 125kts
04-Dec-17 09:09 44.939844 -123.025728 146 695ft 109kts
04-Dec-17 09:10 44.914273 -123.001418 158 649ft 114kts
04-Dec-17 09:11 44.886108 -122.983291 152 1726ft 119kts
04-Dec-17 09:12 44.857522 -122.957911 142 2604ft 120kts
04-Dec-17 09:13 44.825193 -122.932920 145 3035ft 155kts
04-Dec-17 09:14 44.803067 -122.882272 102 3035ft 162kts
04-Dec-17 09:15 44.775638 -122.861900 232 2977ft 144kts
04-Dec-17 09:16 44.794046 -122.903139 327 3138ft 146kts
04-Dec-17 09:17 44.827367 -122.934689 333 3052ft 153kts
04-Dec-17 09:18 44.864713 -122.959727 331 2976ft 151kts
04-Dec-17 09:19 44.900923 -122.988844 329 2978ft 148kts
04-Dec-17 09:20 44.936404 -123.017921 327 2981ft 149kts
04-Dec-17 09:21 44.969663 -123.048311 327 3004ft 150kts
04-Dec-17 09:22 45.004314 -123.079051 328 2986ft 152kts
04-Dec-17 09:23 45.024345 -123.127447 287 2989ft 148kts
04-Dec-17 09:24 45.033818 -123.182115 281 3018ft 145kts
04-Dec-17 09:25 45.060293 -123.191014 71 3083ft 128kts
04-Dec-17 09:26 45.053997 -123.141025 115 2930ft 131kts
04-Dec-17 09:27 45.032842 -123.101037 125 2445ft 134kts
04-Dec-17 09:28 45.000681 -123.078597 156 2028ft 137kts
04-Dec-17 09:29 44.971074 -123.049336 151 1125ft 115kts
04-Dec-17 09:30 44.945067 -123.030047 152 855ft 104kts
04-Dec-17 09:31 44.920002 -123.009846 150 356ft 88kts
04-Dec-17 09:32 44.909024 -123.002333 265 204ft 10kts
04-Dec-17 09:33 44.909023 -123.002528 271 204ft 0kts

Navigation Log

Ident Type
Flight plan parsing failed, navigation log unavailable